sensor_id;sensor_type;location;lat;lon;timestamp;P1;durP1;ratioP1;P2;durP2;ratioP2
54269;SDS011;40181;51.560;13.000;2023-04-15T00:01:14;2.40;;;1.63;;
54269;SDS011;40181;51.560;13.000;2023-04-15T00:03:43;1.55;;;1.38;;
54269;SDS011;40181;51.560;13.000;2023-04-15T00:06:12;1.52;;;1.35;;
54269;SDS011;40181;51.560;13.000;2023-04-15T00:08:42;2.13;;;1.92;;
54269;SDS011;40181;51.560;13.000;2023-04-15T00:11:11;2.53;;;1.98;;
54269;SDS011;40181;51.560;13.000;2023-04-15T00:13:40;1.73;;;1.42;;
54269;SDS011;40181;51.560;13.000;2023-04-15T00:16:13;1.38;;;1.27;;
54269;SDS011;40181;51.560;13.000;2023-04-15T00:18:41;1.20;;;1.10;;
54269;SDS011;40181;51.560;13.000;2023-04-15T00:21:10;1.58;;;1.20;;
54269;SDS011;40181;51.560;13.000;2023-04-15T00:23:39;2.50;;;1.77;;
54269;SDS011;40181;51.560;13.000;2023-04-15T00:26:09;2.22;;;1.80;;
54269;SDS011;40181;51.560;13.000;2023-04-15T00:28:38;1.83;;;1.65;;
54269;SDS011;40181;51.560;13.000;2023-04-15T00:31:07;1.63;;;1.30;;
54269;SDS011;40181;51.560;13.000;2023-04-15T00:33:39;1.40;;;1.30;;
54269;SDS011;40181;51.560;13.000;2023-04-15T00:36:08;2.38;;;1.75;;
54269;SDS011;40181;51.560;13.000;2023-04-15T00:38:38;1.45;;;1.33;;
54269;SDS011;40181;51.560;13.000;2023-04-15T00:41:08;1.23;;;1.13;;
54269;SDS011;40181;51.560;13.000;2023-04-15T00:43:38;2.08;;;1.35;;
54269;SDS011;40181;51.560;13.000;2023-04-15T00:46:07;1.42;;;1.13;;
54269;SDS011;40181;51.560;13.000;2023-04-15T00:48:40;2.00;;;1.55;;
54269;SDS011;40181;51.560;13.000;2023-04-15T00:51:09;1.73;;;1.50;;
54269;SDS011;40181;51.560;13.000;2023-04-15T00:53:38;1.92;;;1.45;;
54269;SDS011;40181;51.560;13.000;2023-04-15T00:56:07;1.60;;;1.40;;
54269;SDS011;40181;51.560;13.000;2023-04-15T00:58:36;2.17;;;1.85;;
54269;SDS011;40181;51.560;13.000;2023-04-15T01:01:05;1.85;;;1.67;;
54269;SDS011;40181;51.560;13.000;2023-04-15T01:03:35;1.48;;;1.15;;
54269;SDS011;40181;51.560;13.000;2023-04-15T01:06:07;1.30;;;1.20;;
54269;SDS011;40181;51.560;13.000;2023-04-15T01:08:36;1.20;;;1.10;;
54269;SDS011;40181;51.560;13.000;2023-04-15T01:11:05;2.10;;;1.55;;
54269;SDS011;40181;51.560;13.000;2023-04-15T01:13:35;1.40;;;1.30;;
54269;SDS011;40181;51.560;13.000;2023-04-15T01:16:05;2.17;;;1.60;;
54269;SDS011;40181;51.560;13.000;2023-04-15T01:18:35;2.33;;;1.75;;
54269;SDS011;40181;51.560;13.000;2023-04-15T01:21:08;4.03;;;1.45;;
54269;SDS011;40181;51.560;13.000;2023-04-15T01:23:37;1.40;;;1.30;;
54269;SDS011;40181;51.560;13.000;2023-04-15T01:26:09;2.23;;;1.63;;
54269;SDS011;40181;51.560;13.000;2023-04-15T01:28:39;1.88;;;1.50;;
54269;SDS011;40181;51.560;13.000;2023-04-15T01:31:08;1.60;;;1.45;;
54269;SDS011;40181;51.560;13.000;2023-04-15T01:33:40;1.30;;;1.20;;
54269;SDS011;40181;51.560;13.000;2023-04-15T01:36:11;2.20;;;1.80;;
54269;SDS011;40181;51.560;13.000;2023-04-15T01:38:40;2.28;;;1.60;;
54269;SDS011;40181;51.560;13.000;2023-04-15T01:41:11;1.90;;;1.55;;
54269;SDS011;40181;51.560;13.000;2023-04-15T01:43:41;3.13;;;2.28;;
54269;SDS011;40181;51.560;13.000;2023-04-15T01:46:10;2.22;;;1.50;;
54269;SDS011;40181;51.560;13.000;2023-04-15T01:48:39;2.42;;;1.48;;
54269;SDS011;40181;51.560;13.000;2023-04-15T01:51:08;2.00;;;1.27;;
54269;SDS011;40181;51.560;13.000;2023-04-15T01:53:37;3.00;;;1.85;;
54269;SDS011;40181;51.560;13.000;2023-04-15T01:56:06;2.30;;;1.73;;
54269;SDS011;40181;51.560;13.000;2023-04-15T01:58:38;1.55;;;1.35;;
54269;SDS011;40181;51.560;13.000;2023-04-15T02:01:07;1.77;;;1.50;;
54269;SDS011;40181;51.560;13.000;2023-04-15T02:03:37;1.35;;;1.20;;
54269;SDS011;40181;51.560;13.000;2023-04-15T02:06:06;1.77;;;1.35;;
54269;SDS011;40181;51.560;13.000;2023-04-15T02:08:35;3.47;;;1.67;;
54269;SDS011;40181;51.560;13.000;2023-04-15T02:11:05;1.42;;;1.30;;
54269;SDS011;40181;51.560;13.000;2023-04-15T02:13:34;4.28;;;1.75;;
54269;SDS011;40181;51.560;13.000;2023-04-15T02:16:14;3.45;;;1.73;;
54269;SDS011;40181;51.560;13.000;2023-04-15T02:18:43;1.23;;;1.13;;
54269;SDS011;40181;51.560;13.000;2023-04-15T02:21:13;2.50;;;1.63;;
54269;SDS011;40181;51.560;13.000;2023-04-15T02:23:43;1.30;;;1.13;;
54269;SDS011;40181;51.560;13.000;2023-04-15T02:26:12;2.25;;;1.48;;
54269;SDS011;40181;51.560;13.000;2023-04-15T02:28:44;1.60;;;1.50;;
54269;SDS011;40181;51.560;13.000;2023-04-15T02:31:15;2.20;;;1.55;;
54269;SDS011;40181;51.560;13.000;2023-04-15T02:33:45;1.40;;;1.30;;
54269;SDS011;40181;51.560;13.000;2023-04-15T02:36:14;2.22;;;1.60;;
54269;SDS011;40181;51.560;13.000;2023-04-15T02:38:43;1.67;;;1.35;;
54269;SDS011;40181;51.560;13.000;2023-04-15T02:41:12;1.55;;;1.45;;
54269;SDS011;40181;51.560;13.000;2023-04-15T02:43:44;2.17;;;1.65;;
54269;SDS011;40181;51.560;13.000;2023-04-15T02:46:13;1.90;;;1.67;;
54269;SDS011;40181;51.560;13.000;2023-04-15T02:48:42;2.03;;;1.70;;
54269;SDS011;40181;51.560;13.000;2023-04-15T02:51:14;1.40;;;1.25;;
54269;SDS011;40181;51.560;13.000;2023-04-15T02:53:46;2.03;;;1.52;;
54269;SDS011;40181;51.560;13.000;2023-04-15T02:56:16;1.40;;;1.20;;
54269;SDS011;40181;51.560;13.000;2023-04-15T02:58:49;1.15;;;0.93;;
54269;SDS011;40181;51.560;13.000;2023-04-15T03:01:20;1.73;;;1.60;;
54269;SDS011;40181;51.560;13.000;2023-04-15T03:03:50;3.67;;;2.58;;
54269;SDS011;40181;51.560;13.000;2023-04-15T03:06:19;2.75;;;1.98;;
54269;SDS011;40181;51.560;13.000;2023-04-15T03:08:48;2.38;;;1.80;;
54269;SDS011;40181;51.560;13.000;2023-04-15T03:11:18;2.95;;;1.90;;
54269;SDS011;40181;51.560;13.000;2023-04-15T03:13:49;1.58;;;1.40;;
54269;SDS011;40181;51.560;13.000;2023-04-15T03:16:18;3.10;;;2.05;;
54269;SDS011;40181;51.560;13.000;2023-04-15T03:18:47;1.85;;;1.50;;
54269;SDS011;40181;51.560;13.000;2023-04-15T03:21:17;2.88;;;1.95;;
54269;SDS011;40181;51.560;13.000;2023-04-15T03:26:23;2.05;;;1.67;;
54269;SDS011;40181;51.560;13.000;2023-04-15T03:28:57;1.88;;;1.70;;
54269;SDS011;40181;51.560;13.000;2023-04-15T03:31:26;2.95;;;1.90;;
54269;SDS011;40181;51.560;13.000;2023-04-15T03:33:55;2.15;;;1.42;;
54269;SDS011;40181;51.560;13.000;2023-04-15T03:36:24;2.10;;;1.67;;
54269;SDS011;40181;51.560;13.000;2023-04-15T03:38:56;1.95;;;1.75;;
54269;SDS011;40181;51.560;13.000;2023-04-15T03:41:26;1.90;;;1.58;;
54269;SDS011;40181;51.560;13.000;2023-04-15T03:43:57;2.20;;;1.75;;
54269;SDS011;40181;51.560;13.000;2023-04-15T03:46:26;1.58;;;1.33;;
54269;SDS011;40181;51.560;13.000;2023-04-15T03:48:56;2.67;;;2.08;;
54269;SDS011;40181;51.560;13.000;2023-04-15T03:51:25;1.98;;;1.67;;
54269;SDS011;40181;51.560;13.000;2023-04-15T03:53:54;1.88;;;1.67;;
54269;SDS011;40181;51.560;13.000;2023-04-15T03:56:23;2.83;;;2.08;;
54269;SDS011;40181;51.560;13.000;2023-04-15T03:58:52;2.13;;;1.80;;
54269;SDS011;40181;51.560;13.000;2023-04-15T04:01:24;1.50;;;1.30;;
54269;SDS011;40181;51.560;13.000;2023-04-15T04:03:53;3.28;;;1.92;;
54269;SDS011;40181;51.560;13.000;2023-04-15T04:06:22;4.28;;;1.88;;
54269;SDS011;40181;51.560;13.000;2023-04-15T04:08:51;2.45;;;2.13;;
54269;SDS011;40181;51.560;13.000;2023-04-15T04:11:20;1.92;;;1.38;;
54269;SDS011;40181;51.560;13.000;2023-04-15T04:13:50;2.25;;;1.80;;
54269;SDS011;40181;51.560;13.000;2023-04-15T04:16:19;2.22;;;1.75;;
54269;SDS011;40181;51.560;13.000;2023-04-15T04:18:50;2.42;;;2.10;;
54269;SDS011;40181;51.560;13.000;2023-04-15T04:21:19;1.83;;;1.70;;
54269;SDS011;40181;51.560;13.000;2023-04-15T04:23:48;8.95;;;2.17;;
54269;SDS011;40181;51.560;13.000;2023-04-15T04:26:18;2.05;;;1.85;;
54269;SDS011;40181;51.560;13.000;2023-04-15T04:28:47;4.80;;;2.53;;
54269;SDS011;40181;51.560;13.000;2023-04-15T04:31:16;2.55;;;2.15;;
54269;SDS011;40181;51.560;13.000;2023-04-15T04:33:45;4.22;;;1.90;;
54269;SDS011;40181;51.560;13.000;2023-04-15T04:36:17;1.98;;;1.67;;
54269;SDS011;40181;51.560;13.000;2023-04-15T04:38:46;1.80;;;1.52;;
54269;SDS011;40181;51.560;13.000;2023-04-15T04:41:15;3.58;;;2.50;;
54269;SDS011;40181;51.560;13.000;2023-04-15T04:43:44;2.67;;;2.15;;
54269;SDS011;40181;51.560;13.000;2023-04-15T04:46:13;3.00;;;2.00;;
54269;SDS011;40181;51.560;13.000;2023-04-15T04:48:42;2.30;;;2.10;;
54269;SDS011;40181;51.560;13.000;2023-04-15T04:51:11;3.05;;;2.58;;
54269;SDS011;40181;51.560;13.000;2023-04-15T04:53:43;3.80;;;2.47;;
54269;SDS011;40181;51.560;13.000;2023-04-15T04:56:12;2.28;;;2.05;;
54269;SDS011;40181;51.560;13.000;2023-04-15T04:58:41;2.63;;;2.35;;
54269;SDS011;40181;51.560;13.000;2023-04-15T05:01:10;2.30;;;1.95;;
54269;SDS011;40181;51.560;13.000;2023-04-15T05:03:39;3.10;;;2.40;;
54269;SDS011;40181;51.560;13.000;2023-04-15T05:06:08;3.97;;;2.88;;
54269;SDS011;40181;51.560;13.000;2023-04-15T05:08:37;3.22;;;2.13;;
54269;SDS011;40181;51.560;13.000;2023-04-15T05:11:09;3.92;;;2.55;;
54269;SDS011;40181;51.560;13.000;2023-04-15T05:13:38;4.78;;;2.25;;
54269;SDS011;40181;51.560;13.000;2023-04-15T05:16:07;4.03;;;2.65;;
54269;SDS011;40181;51.560;13.000;2023-04-15T05:18:36;2.58;;;2.38;;
54269;SDS011;40181;51.560;13.000;2023-04-15T05:21:05;3.08;;;2.67;;
54269;SDS011;40181;51.560;13.000;2023-04-15T05:23:34;3.75;;;2.75;;
54269;SDS011;40181;51.560;13.000;2023-04-15T05:26:04;3.28;;;2.50;;
54269;SDS011;40181;51.560;13.000;2023-04-15T05:28:36;2.65;;;2.35;;
54269;SDS011;40181;51.560;13.000;2023-04-15T05:31:05;6.63;;;3.35;;
54269;SDS011;40181;51.560;13.000;2023-04-15T05:33:34;3.45;;;2.88;;
54269;SDS011;40181;51.560;13.000;2023-04-15T05:36:04;3.30;;;2.55;;
54269;SDS011;40181;51.560;13.000;2023-04-15T05:38:34;3.08;;;2.40;;
54269;SDS011;40181;51.560;13.000;2023-04-15T05:41:03;4.38;;;3.15;;
54269;SDS011;40181;51.560;13.000;2023-04-15T05:43:32;5.68;;;3.72;;
54269;SDS011;40181;51.560;13.000;2023-04-15T05:46:03;3.08;;;2.60;;
54269;SDS011;40181;51.560;13.000;2023-04-15T05:48:32;4.70;;;3.78;;
54269;SDS011;40181;51.560;13.000;2023-04-15T05:51:02;4.53;;;3.85;;
54269;SDS011;40181;51.560;13.000;2023-04-15T05:53:31;5.95;;;3.47;;
54269;SDS011;40181;51.560;13.000;2023-04-15T05:56:01;4.38;;;3.65;;
54269;SDS011;40181;51.560;13.000;2023-04-15T05:58:30;4.57;;;3.75;;
54269;SDS011;40181;51.560;13.000;2023-04-15T06:01:02;7.18;;;4.53;;
54269;SDS011;40181;51.560;13.000;2023-04-15T06:03:31;4.93;;;3.65;;
54269;SDS011;40181;51.560;13.000;2023-04-15T06:06:00;5.50;;;3.90;;
54269;SDS011;40181;51.560;13.000;2023-04-15T06:08:29;6.22;;;4.05;;
54269;SDS011;40181;51.560;13.000;2023-04-15T06:10:58;8.07;;;5.18;;
54269;SDS011;40181;51.560;13.000;2023-04-15T06:13:27;5.55;;;4.65;;
54269;SDS011;40181;51.560;13.000;2023-04-15T06:15:56;5.85;;;4.30;;
54269;SDS011;40181;51.560;13.000;2023-04-15T06:18:28;6.45;;;5.55;;
54269;SDS011;40181;51.560;13.000;2023-04-15T06:20:57;7.28;;;5.72;;
54269;SDS011;40181;51.560;13.000;2023-04-15T06:23:26;8.00;;;5.80;;
54269;SDS011;40181;51.560;13.000;2023-04-15T06:25:58;6.45;;;4.93;;
54269;SDS011;40181;51.560;13.000;2023-04-15T06:28:27;7.03;;;5.30;;
54269;SDS011;40181;51.560;13.000;2023-04-15T06:30:56;6.13;;;5.50;;
54269;SDS011;40181;51.560;13.000;2023-04-15T06:33:28;5.90;;;4.88;;
54269;SDS011;40181;51.560;13.000;2023-04-15T06:35:57;5.78;;;5.18;;
54269;SDS011;40181;51.560;13.000;2023-04-15T06:38:26;6.07;;;5.15;;
54269;SDS011;40181;51.560;13.000;2023-04-15T06:40:55;11.80;;;6.40;;
54269;SDS011;40181;51.560;13.000;2023-04-15T06:43:25;9.32;;;6.07;;
54269;SDS011;40181;51.560;13.000;2023-04-15T06:45:54;5.47;;;4.80;;
54269;SDS011;40181;51.560;13.000;2023-04-15T06:48:23;7.63;;;5.72;;
54269;SDS011;40181;51.560;13.000;2023-04-15T06:50:55;7.35;;;6.40;;
54269;SDS011;40181;51.560;13.000;2023-04-15T06:53:24;9.98;;;7.85;;
54269;SDS011;40181;51.560;13.000;2023-04-15T06:55:54;7.07;;;6.18;;
54269;SDS011;40181;51.560;13.000;2023-04-15T06:58:23;9.05;;;6.95;;
54269;SDS011;40181;51.560;13.000;2023-04-15T07:00:52;8.88;;;6.88;;
54269;SDS011;40181;51.560;13.000;2023-04-15T07:03:21;7.20;;;6.03;;
54269;SDS011;40181;51.560;13.000;2023-04-15T07:05:50;8.75;;;5.28;;
54269;SDS011;40181;51.560;13.000;2023-04-15T07:08:21;7.32;;;6.35;;
54269;SDS011;40181;51.560;13.000;2023-04-15T07:10:50;7.70;;;6.75;;
54269;SDS011;40181;51.560;13.000;2023-04-15T07:13:20;8.75;;;6.82;;
54269;SDS011;40181;51.560;13.000;2023-04-15T07:15:49;8.55;;;6.80;;
54269;SDS011;40181;51.560;13.000;2023-04-15T07:18:18;7.85;;;6.45;;
54269;SDS011;40181;51.560;13.000;2023-04-15T07:20:47;7.20;;;5.93;;
54269;SDS011;40181;51.560;13.000;2023-04-15T07:23:16;10.93;;;7.07;;
54269;SDS011;40181;51.560;13.000;2023-04-15T07:25:47;9.05;;;7.70;;
54269;SDS011;40181;51.560;13.000;2023-04-15T07:28:17;9.45;;;7.82;;
54269;SDS011;40181;51.560;13.000;2023-04-15T07:30:46;8.02;;;6.82;;
54269;SDS011;40181;51.560;13.000;2023-04-15T07:33:15;9.80;;;8.15;;
54269;SDS011;40181;51.560;13.000;2023-04-15T07:35:44;8.27;;;7.20;;
54269;SDS011;40181;51.560;13.000;2023-04-15T07:38:14;9.07;;;8.00;;
54269;SDS011;40181;51.560;13.000;2023-04-15T07:40:43;9.48;;;6.65;;
54269;SDS011;40181;51.560;13.000;2023-04-15T07:43:16;8.32;;;7.25;;
54269;SDS011;40181;51.560;13.000;2023-04-15T07:45:45;9.02;;;7.60;;
54269;SDS011;40181;51.560;13.000;2023-04-15T07:48:14;9.55;;;7.97;;
54269;SDS011;40181;51.560;13.000;2023-04-15T07:50:43;9.85;;;7.20;;
54269;SDS011;40181;51.560;13.000;2023-04-15T07:53:12;10.50;;;7.35;;
54269;SDS011;40181;51.560;13.000;2023-04-15T07:55:41;8.40;;;6.78;;
54269;SDS011;40181;51.560;13.000;2023-04-15T07:58:10;8.05;;;7.13;;
54269;SDS011;40181;51.560;13.000;2023-04-15T08:00:42;8.98;;;6.93;;
54269;SDS011;40181;51.560;13.000;2023-04-15T08:03:11;13.27;;;7.78;;
54269;SDS011;40181;51.560;13.000;2023-04-15T08:05:40;7.45;;;6.30;;
54269;SDS011;40181;51.560;13.000;2023-04-15T08:08:09;11.05;;;7.78;;
54269;SDS011;40181;51.560;13.000;2023-04-15T08:10:38;11.07;;;7.40;;
54269;SDS011;40181;51.560;13.000;2023-04-15T08:13:07;7.90;;;6.50;;
54269;SDS011;40181;51.560;13.000;2023-04-15T08:15:36;9.52;;;6.45;;
54269;SDS011;40181;51.560;13.000;2023-04-15T08:18:08;12.02;;;7.88;;
54269;SDS011;40181;51.560;13.000;2023-04-15T08:20:37;8.48;;;6.90;;
54269;SDS011;40181;51.560;13.000;2023-04-15T08:23:07;42.03;;;8.55;;
54269;SDS011;40181;51.560;13.000;2023-04-15T08:25:36;24.40;;;6.70;;
54269;SDS011;40181;51.560;13.000;2023-04-15T08:28:05;7.75;;;5.95;;
54269;SDS011;40181;51.560;13.000;2023-04-15T08:30:36;23.70;;;8.05;;
54269;SDS011;40181;51.560;13.000;2023-04-15T08:33:05;8.45;;;6.53;;
54269;SDS011;40181;51.560;13.000;2023-04-15T08:35:37;10.75;;;5.72;;
54269;SDS011;40181;51.560;13.000;2023-04-15T08:38:06;13.45;;;6.13;;
54269;SDS011;40181;51.560;13.000;2023-04-15T08:40:39;9.48;;;7.28;;
54269;SDS011;40181;51.560;13.000;2023-04-15T08:43:11;6.32;;;5.63;;
54269;SDS011;40181;51.560;13.000;2023-04-15T08:45:45;7.78;;;5.53;;
54269;SDS011;40181;51.560;13.000;2023-04-15T08:48:19;8.57;;;5.53;;
54269;SDS011;40181;51.560;13.000;2023-04-15T08:50:49;7.95;;;5.32;;
54269;SDS011;40181;51.560;13.000;2023-04-15T08:53:19;6.45;;;5.25;;
54269;SDS011;40181;51.560;13.000;2023-04-15T08:55:50;7.90;;;6.35;;
54269;SDS011;40181;51.560;13.000;2023-04-15T08:58:20;8.25;;;5.85;;
54269;SDS011;40181;51.560;13.000;2023-04-15T09:00:49;7.65;;;6.50;;
54269;SDS011;40181;51.560;13.000;2023-04-15T09:03:20;11.95;;;7.13;;
54269;SDS011;40181;51.560;13.000;2023-04-15T09:05:50;9.77;;;6.70;;
54269;SDS011;40181;51.560;13.000;2023-04-15T09:08:19;17.65;;;6.93;;
54269;SDS011;40181;51.560;13.000;2023-04-15T09:10:48;10.20;;;5.85;;
54269;SDS011;40181;51.560;13.000;2023-04-15T09:13:17;8.05;;;5.45;;
54269;SDS011;40181;51.560;13.000;2023-04-15T09:15:47;14.95;;;6.30;;
54269;SDS011;40181;51.560;13.000;2023-04-15T09:18:28;8.68;;;5.50;;
54269;SDS011;40181;51.560;13.000;2023-04-15T09:21:05;8.20;;;5.18;;
54269;SDS011;40181;51.560;13.000;2023-04-15T09:23:37;6.40;;;5.05;;
54269;SDS011;40181;51.560;13.000;2023-04-15T09:26:07;7.80;;;5.47;;
54269;SDS011;40181;51.560;13.000;2023-04-15T09:28:40;7.03;;;5.45;;
54269;SDS011;40181;51.560;13.000;2023-04-15T09:31:09;5.72;;;4.82;;
54269;SDS011;40181;51.560;13.000;2023-04-15T09:33:54;6.47;;;4.72;;
54269;SDS011;40181;51.560;13.000;2023-04-15T09:36:23;7.90;;;5.65;;
54269;SDS011;40181;51.560;13.000;2023-04-15T09:38:54;9.65;;;4.78;;
54269;SDS011;40181;51.560;13.000;2023-04-15T09:41:24;7.43;;;5.70;;
54269;SDS011;40181;51.560;13.000;2023-04-15T09:43:53;6.70;;;5.38;;
54269;SDS011;40181;51.560;13.000;2023-04-15T09:49:12;3.67;;;3.20;;
54269;SDS011;40181;51.560;13.000;2023-04-15T09:51:42;6.25;;;4.40;;
54269;SDS011;40181;51.560;13.000;2023-04-15T09:54:11;9.32;;;4.00;;
54269;SDS011;40181;51.560;13.000;2023-04-15T09:56:40;5.95;;;4.32;;
54269;SDS011;40181;51.560;13.000;2023-04-15T09:59:09;5.20;;;3.60;;
54269;SDS011;40181;51.560;13.000;2023-04-15T10:01:38;5.95;;;3.95;;
54269;SDS011;40181;51.560;13.000;2023-04-15T10:04:10;5.00;;;4.45;;
54269;SDS011;40181;51.560;13.000;2023-04-15T10:06:42;5.65;;;4.25;;
54269;SDS011;40181;51.560;13.000;2023-04-15T10:09:11;4.63;;;3.50;;
54269;SDS011;40181;51.560;13.000;2023-04-15T10:11:41;7.28;;;4.45;;
54269;SDS011;40181;51.560;13.000;2023-04-15T10:14:12;4.72;;;3.78;;
54269;SDS011;40181;51.560;13.000;2023-04-15T10:19:15;4.43;;;3.53;;
54269;SDS011;40181;51.560;13.000;2023-04-15T10:21:50;4.80;;;3.38;;
54269;SDS011;40181;51.560;13.000;2023-04-15T10:24:20;4.07;;;3.15;;
54269;SDS011;40181;51.560;13.000;2023-04-15T10:26:51;5.30;;;3.67;;
54269;SDS011;40181;51.560;13.000;2023-04-15T10:29:22;4.28;;;3.30;;
54269;SDS011;40181;51.560;13.000;2023-04-15T10:31:53;6.20;;;4.13;;
54269;SDS011;40181;51.560;13.000;2023-04-15T10:34:25;5.53;;;3.93;;
54269;SDS011;40181;51.560;13.000;2023-04-15T10:36:55;4.72;;;3.50;;
54269;SDS011;40181;51.560;13.000;2023-04-15T10:39:41;3.53;;;3.15;;
54269;SDS011;40181;51.560;13.000;2023-04-15T10:42:12;4.20;;;3.30;;
54269;SDS011;40181;51.560;13.000;2023-04-15T10:44:43;4.80;;;3.83;;
54269;SDS011;40181;51.560;13.000;2023-04-15T10:47:16;4.95;;;3.15;;
54269;SDS011;40181;51.560;13.000;2023-04-15T10:49:50;2.60;;;2.30;;
54269;SDS011;40181;51.560;13.000;2023-04-15T10:52:25;3.38;;;3.00;;
54269;SDS011;40181;51.560;13.000;2023-04-15T10:55:02;3.92;;;2.90;;
54269;SDS011;40181;51.560;13.000;2023-04-15T10:57:41;4.15;;;3.08;;
54269;SDS011;40181;51.560;13.000;2023-04-15T11:00:11;3.97;;;3.38;;
54269;SDS011;40181;51.560;13.000;2023-04-15T11:02:43;7.18;;;3.55;;
54269;SDS011;40181;51.560;13.000;2023-04-15T11:05:17;3.75;;;2.78;;
54269;SDS011;40181;51.560;13.000;2023-04-15T11:07:48;4.65;;;3.60;;
54269;SDS011;40181;51.560;13.000;2023-04-15T11:13:21;3.00;;;2.53;;
54269;SDS011;40181;51.560;13.000;2023-04-15T11:16:00;3.88;;;3.05;;
54269;SDS011;40181;51.560;13.000;2023-04-15T11:18:34;4.32;;;2.80;;
54269;SDS011;40181;51.560;13.000;2023-04-15T11:21:06;5.80;;;3.13;;
54269;SDS011;40181;51.560;13.000;2023-04-15T11:23:37;3.95;;;2.92;;
54269;SDS011;40181;51.560;13.000;2023-04-15T11:26:10;4.20;;;2.95;;
54269;SDS011;40181;51.560;13.000;2023-04-15T11:28:41;2.92;;;2.22;;
54269;SDS011;40181;51.560;13.000;2023-04-15T11:31:12;3.17;;;2.50;;
54269;SDS011;40181;51.560;13.000;2023-04-15T11:33:44;4.50;;;2.65;;
54269;SDS011;40181;51.560;13.000;2023-04-15T11:36:25;3.38;;;2.30;;
54269;SDS011;40181;51.560;13.000;2023-04-15T11:38:56;3.80;;;2.38;;
54269;SDS011;40181;51.560;13.000;2023-04-15T11:41:26;2.83;;;2.17;;
54269;SDS011;40181;51.560;13.000;2023-04-15T11:43:55;2.70;;;1.95;;
54269;SDS011;40181;51.560;13.000;2023-04-15T11:46:27;4.93;;;2.72;;
54269;SDS011;40181;51.560;13.000;2023-04-15T11:48:57;3.55;;;1.75;;
54269;SDS011;40181;51.560;13.000;2023-04-15T11:51:29;3.65;;;2.67;;
54269;SDS011;40181;51.560;13.000;2023-04-15T11:54:00;3.30;;;2.10;;
54269;SDS011;40181;51.560;13.000;2023-04-15T11:56:29;2.78;;;1.88;;
54269;SDS011;40181;51.560;13.000;2023-04-15T11:58:58;3.53;;;2.38;;
54269;SDS011;40181;51.560;13.000;2023-04-15T12:01:31;2.70;;;2.38;;
54269;SDS011;40181;51.560;13.000;2023-04-15T12:04:00;4.05;;;2.53;;
54269;SDS011;40181;51.560;13.000;2023-04-15T12:06:35;4.40;;;2.55;;
54269;SDS011;40181;51.560;13.000;2023-04-15T12:09:09;2.40;;;2.10;;
54269;SDS011;40181;51.560;13.000;2023-04-15T12:11:40;2.63;;;1.83;;
54269;SDS011;40181;51.560;13.000;2023-04-15T12:14:15;4.53;;;1.98;;
54269;SDS011;40181;51.560;13.000;2023-04-15T12:16:51;3.35;;;2.03;;
54269;SDS011;40181;51.560;13.000;2023-04-15T12:19:22;3.78;;;2.22;;
54269;SDS011;40181;51.560;13.000;2023-04-15T12:21:59;4.22;;;3.17;;
54269;SDS011;40181;51.560;13.000;2023-04-15T12:24:31;4.95;;;2.90;;
54269;SDS011;40181;51.560;13.000;2023-04-15T12:27:01;3.33;;;2.60;;
54269;SDS011;40181;51.560;13.000;2023-04-15T12:32:05;5.00;;;2.30;;
54269;SDS011;40181;51.560;13.000;2023-04-15T12:34:37;2.58;;;2.22;;
54269;SDS011;40181;51.560;13.000;2023-04-15T12:37:10;2.70;;;1.83;;
54269;SDS011;40181;51.560;13.000;2023-04-15T12:39:40;1.90;;;1.70;;
54269;SDS011;40181;51.560;13.000;2023-04-15T12:42:13;2.97;;;2.30;;
54269;SDS011;40181;51.560;13.000;2023-04-15T12:47:12;2.58;;;1.73;;
54269;SDS011;40181;51.560;13.000;2023-04-15T12:49:41;2.50;;;1.73;;
54269;SDS011;40181;51.560;13.000;2023-04-15T12:52:13;2.28;;;1.95;;
54269;SDS011;40181;51.560;13.000;2023-04-15T12:54:43;3.58;;;1.80;;
54269;SDS011;40181;51.560;13.000;2023-04-15T12:57:12;4.45;;;2.33;;
54269;SDS011;40181;51.560;13.000;2023-04-15T12:59:41;4.07;;;3.47;;
54269;SDS011;40181;51.560;13.000;2023-04-15T13:02:10;4.93;;;3.60;;
54269;SDS011;40181;51.560;13.000;2023-04-15T13:04:39;4.00;;;2.80;;
54269;SDS011;40181;51.560;13.000;2023-04-15T13:07:08;4.93;;;3.13;;
54269;SDS011;40181;51.560;13.000;2023-04-15T13:09:40;3.42;;;2.65;;
54269;SDS011;40181;51.560;13.000;2023-04-15T13:12:09;5.50;;;2.15;;
54269;SDS011;40181;51.560;13.000;2023-04-15T13:14:39;2.42;;;1.80;;
54269;SDS011;40181;51.560;13.000;2023-04-15T13:17:08;1.52;;;1.35;;
54269;SDS011;40181;51.560;13.000;2023-04-15T13:19:37;3.42;;;1.48;;
54269;SDS011;40181;51.560;13.000;2023-04-15T13:22:06;1.77;;;1.13;;
54269;SDS011;40181;51.560;13.000;2023-04-15T13:24:35;1.95;;;1.42;;
54269;SDS011;40181;51.560;13.000;2023-04-15T13:27:08;1.17;;;1.07;;
54269;SDS011;40181;51.560;13.000;2023-04-15T13:29:37;1.25;;;1.10;;
54269;SDS011;40181;51.560;13.000;2023-04-15T13:32:06;2.47;;;1.83;;
54269;SDS011;40181;51.560;13.000;2023-04-15T13:34:35;2.58;;;2.13;;
54269;SDS011;40181;51.560;13.000;2023-04-15T13:37:07;2.63;;;1.80;;
54269;SDS011;40181;51.560;13.000;2023-04-15T13:39:36;3.67;;;2.08;;
54269;SDS011;40181;51.560;13.000;2023-04-15T13:42:08;3.35;;;1.63;;
54269;SDS011;40181;51.560;13.000;2023-04-15T13:44:37;1.45;;;1.35;;
54269;SDS011;40181;51.560;13.000;2023-04-15T13:47:06;2.17;;;1.40;;
54269;SDS011;40181;51.560;13.000;2023-04-15T13:49:35;1.83;;;1.27;;
54269;SDS011;40181;51.560;13.000;2023-04-15T13:52:04;1.38;;;1.25;;
54269;SDS011;40181;51.560;13.000;2023-04-15T13:54:33;1.50;;;1.23;;
54269;SDS011;40181;51.560;13.000;2023-04-15T13:57:02;0.80;;;0.80;;
54269;SDS011;40181;51.560;13.000;2023-04-15T13:59:35;1.20;;;1.00;;
54269;SDS011;40181;51.560;13.000;2023-04-15T14:02:04;1.17;;;1.00;;
54269;SDS011;40181;51.560;13.000;2023-04-15T14:04:33;0.85;;;0.85;;
54269;SDS011;40181;51.560;13.000;2023-04-15T14:07:02;1.90;;;0.88;;
54269;SDS011;40181;51.560;13.000;2023-04-15T14:09:31;1.40;;;1.05;;
54269;SDS011;40181;51.560;13.000;2023-04-15T14:12:01;1.33;;;0.80;;
54269;SDS011;40181;51.560;13.000;2023-04-15T14:14:31;1.17;;;0.90;;
54269;SDS011;40181;51.560;13.000;2023-04-15T14:17:03;1.63;;;1.20;;
54269;SDS011;40181;51.560;13.000;2023-04-15T14:19:32;1.92;;;1.38;;
54269;SDS011;40181;51.560;13.000;2023-04-15T14:22:02;3.70;;;1.67;;
54269;SDS011;40181;51.560;13.000;2023-04-15T14:24:31;2.22;;;1.33;;
54269;SDS011;40181;51.560;13.000;2023-04-15T14:27:00;2.70;;;1.42;;
54269;SDS011;40181;51.560;13.000;2023-04-15T14:29:29;1.00;;;0.90;;
54269;SDS011;40181;51.560;13.000;2023-04-15T14:32:01;1.92;;;1.05;;
54269;SDS011;40181;51.560;13.000;2023-04-15T14:34:30;1.83;;;1.27;;
54269;SDS011;40181;51.560;13.000;2023-04-15T14:36:59;2.25;;;1.45;;
54269;SDS011;40181;51.560;13.000;2023-04-15T14:39:30;1.38;;;1.20;;
54269;SDS011;40181;51.560;13.000;2023-04-15T14:41:59;1.23;;;0.90;;
54269;SDS011;40181;51.560;13.000;2023-04-15T14:44:28;2.78;;;1.70;;
54269;SDS011;40181;51.560;13.000;2023-04-15T14:46:57;2.20;;;1.05;;
54269;SDS011;40181;51.560;13.000;2023-04-15T14:49:28;1.58;;;1.05;;
54269;SDS011;40181;51.560;13.000;2023-04-15T14:51:57;1.10;;;0.90;;
54269;SDS011;40181;51.560;13.000;2023-04-15T14:54:26;1.00;;;0.90;;
54269;SDS011;40181;51.560;13.000;2023-04-15T14:56:55;1.48;;;1.13;;
54269;SDS011;40181;51.560;13.000;2023-04-15T14:59:25;1.02;;;0.77;;
54269;SDS011;40181;51.560;13.000;2023-04-15T15:01:54;1.00;;;0.90;;
54269;SDS011;40181;51.560;13.000;2023-04-15T15:04:26;1.48;;;1.20;;
54269;SDS011;40181;51.560;13.000;2023-04-15T15:06:57;0.95;;;0.77;;